Time;durP1;ratioP1;P1;durP2;ratioP2;P2;SDS_P1;SDS_P2;PMS_P1;PMS_P2;Temp;Humidity;BMP_temperature;BMP_pressure;BME280_temperature;BME280_humidity;BME280_pressure;Samples;Min_cycle;Max_cycle;Signal;HPM_P1;HPM_P2
2021/12/20 00:01:08;;;;;;;24.73;12.40;;;;;;;16.13;45.37;102338.78;4430744;32;20091;-69
2021/12/20 00:03:34;;;;;;;23.42;11.90;;;;;;;16.29;45.17;102348.13;4430271;32;20041;-69
2021/12/20 00:06:01;;;;;;;29.15;13.82;;;;;;;16.20;45.12;102342.25;4433633;32;20073;-69
2021/12/20 00:08:28;;;;;;;23.10;12.35;;;;;;;16.12;45.41;102340.00;4431004;32;20878;-69
2021/12/20 00:10:55;;;;;;;29.15;13.62;;;;;;;16.14;45.53;102338.31;4432483;32;20167;-69
2021/12/20 00:13:23;;;;;;;30.20;14.52;;;;;;;16.22;45.44;102331.25;4432559;32;20073;-69
2021/12/20 00:15:49;;;;;;;29.08;13.88;;;;;;;16.09;45.31;102327.47;4431143;32;20142;-69
2021/12/20 00:18:15;;;;;;;27.50;13.73;;;;;;;16.13;45.36;102325.34;4433603;32;20080;-69
2021/12/20 00:20:40;;;;;;;30.62;13.93;;;;;;;16.24;45.25;102328.78;4431424;32;20333;-69
2021/12/20 00:23:06;;;;;;;28.50;14.27;;;;;;;16.22;45.24;102328.41;4432878;32;20439;-69
2021/12/20 00:25:33;;;;;;;30.30;14.95;;;;;;;16.31;45.00;102327.81;4433975;32;20093;-69
2021/12/20 00:28:00;;;;;;;27.15;13.10;;;;;;;16.59;44.58;102327.19;4430313;32;20457;-69
2021/12/20 00:30:27;;;;;;;24.37;13.13;;;;;;;16.23;44.94;102315.00;4431960;32;20033;-69
2021/12/20 00:32:53;;;;;;;30.92;13.68;;;;;;;16.29;45.25;102314.03;4431816;32;20069;-69
2021/12/20 00:35:24;;;;;;;26.87;14.82;;;;;;;16.25;45.18;102319.00;4434536;32;20457;-69
2021/12/20 00:40:37;;;;;;;;;;;;;;;16.11;45.54;102315.69;4431912;32;20375;-69
2021/12/20 00:43:03;;;;;;;29.55;13.82;;;;;;;16.53;44.36;102324.06;4433379;32;20019;-69
2021/12/20 00:45:32;;;;;;;28.65;13.98;;;;;;;16.29;45.38;102313.25;4432571;32;20077;-69
2021/12/20 00:47:59;;;;;;;31.12;14.40;;;;;;;16.40;45.31;102316.62;4431992;32;20062;-69
2021/12/20 00:50:26;;;;;;;29.20;14.30;;;;;;;16.25;45.31;102319.00;4429504;32;20054;-69
2021/12/20 00:52:54;;;;;;;26.48;13.62;;;;;;;16.29;44.85;102313.25;4432956;32;20093;-69
2021/12/20 00:55:22;;;;;;;23.73;12.43;;;;;;;16.20;45.26;102318.72;4430661;32;20583;-69
2021/12/20 00:57:50;;;;;;;26.42;13.57;;;;;;;16.53;44.80;102323.25;4421382;32;20061;-69
2021/12/20 01:00:20;;;;;;;29.30;14.52;;;;;;;16.36;44.71;102313.91;4422227;32;20041;-69
2021/12/20 01:02:47;;;;;;;27.35;13.07;;;;;;;16.45;45.08;102313.31;4420092;32;20334;-69
2021/12/20 01:05:13;;;;;;;25.45;13.07;;;;;;;16.18;45.18;102307.81;4421072;32;20107;-69
2021/12/20 01:07:39;;;;;;;23.48;12.40;;;;;;;16.29;45.28;102305.50;4422110;32;20411;-69
2021/12/20 01:10:08;;;;;;;26.23;12.90;;;;;;;16.32;45.26;102301.00;4421154;32;20513;-69
2021/12/20 01:12:43;;;;;;;24.95;12.35;;;;;;;16.24;45.08;102296.72;4420964;32;20117;-69
2021/12/20 01:15:13;;;;;;;27.37;13.48;;;;;;;16.22;45.05;102302.84;4424629;32;20041;-69
2021/12/20 01:17:38;;;;;;;26.75;11.68;;;;;;;16.46;45.22;102298.66;4420576;32;20029;-69
2021/12/20 01:20:06;;;;;;;24.67;11.68;;;;;;;16.36;45.10;102293.19;4417496;32;20077;-69
2021/12/20 01:22:32;;;;;;;27.02;12.82;;;;;;;16.45;45.04;102297.06;4417438;32;20077;-69
2021/12/20 01:24:58;;;;;;;26.37;12.63;;;;;;;16.39;44.90;102289.47;4424633;32;20137;-69
2021/12/20 01:27:23;;;;;;;26.45;13.43;;;;;;;16.44;44.39;102286.94;4423349;32;20038;-69
2021/12/20 01:29:49;;;;;;;27.95;12.88;;;;;;;16.38;44.44;102293.56;4418125;32;20077;-69
2021/12/20 01:32:15;;;;;;;26.40;12.98;;;;;;;16.46;44.25;102284.47;4421391;32;20052;-69
2021/12/20 01:34:41;;;;;;;24.63;12.93;;;;;;;16.41;44.60;102287.00;4419750;32;20081;-69
2021/12/20 01:37:07;;;;;;;26.55;12.63;;;;;;;16.45;44.52;102277.19;4421430;32;20418;-69
2021/12/20 01:39:32;;;;;;;28.98;13.07;;;;;;;16.37;44.61;102275.72;4421489;32;20219;-69
2021/12/20 01:41:59;;;;;;;24.37;12.18;;;;;;;16.35;44.71;102281.03;4421852;32;20029;-69
2021/12/20 01:44:26;;;;;;;25.42;12.25;;;;;;;16.21;45.21;102277.72;4421096;32;20057;-69
2021/12/20 01:46:52;;;;;;;22.83;12.02;;;;;;;16.32;44.54;102289.66;4422630;32;20104;-69
2021/12/20 01:49:19;;;;;;;25.62;11.70;;;;;;;16.42;44.56;102274.37;4420319;32;20055;-69
2021/12/20 01:52:03;;;;;;;27.02;12.25;;;;;;;16.30;44.96;102275.88;4421581;32;20046;-69
2021/12/20 01:54:31;;;;;;;24.27;11.82;;;;;;;16.43;44.93;102270.28;4417453;32;20073;-69
2021/12/20 01:56:59;;;;;;;27.83;12.57;;;;;;;16.64;44.50;102276.31;4418636;32;20493;-69
2021/12/20 01:59:25;;;;;;;29.30;13.27;;;;;;;16.43;44.58;102279.66;4418180;32;20077;-69
2021/12/20 02:01:52;;;;;;;28.58;12.02;;;;;;;16.48;44.69;102281.97;4417012;32;20528;-69
2021/12/20 02:04:19;;;;;;;24.65;12.07;;;;;;;16.42;44.64;102277.22;4423244;32;20079;-69
2021/12/20 02:06:48;;;;;;;26.40;12.05;;;;;;;16.40;44.85;102274.81;4418356;32;20049;-69
2021/12/20 02:09:17;;;;;;;28.40;11.98;;;;;;;16.45;44.85;102280.03;4418373;32;20113;-69
2021/12/20 02:11:46;;;;;;;24.85;12.30;;;;;;;16.54;44.76;102280.19;4418464;32;20073;-69
2021/12/20 02:14:12;;;;;;;24.58;12.80;;;;;;;16.70;44.49;102276.56;4417149;32;20073;-69
2021/12/20 02:16:40;;;;;;;27.98;12.75;;;;;;;16.48;44.47;102266.97;4420497;32;20037;-69
2021/12/20 02:19:10;;;;;;;27.75;12.13;;;;;;;16.57;44.42;102261.47;4419913;32;20069;-69
2021/12/20 02:21:36;;;;;;;27.15;12.25;;;;;;;16.51;44.57;102263.22;4418041;32;20029;-69
2021/12/20 02:24:03;;;;;;;25.12;11.95;;;;;;;16.38;44.79;102250.94;4418207;32;20026;-69
2021/12/20 02:26:29;;;;;;;25.50;12.37;;;;;;;16.50;44.44;102256.75;4421285;32;20393;-69
2021/12/20 02:28:58;;;;;;;25.33;11.98;;;;;;;16.21;44.86;102244.44;4420331;32;20069;-69
2021/12/20 02:37:00;;;;;;;26.33;12.65;;;;;;;16.66;44.68;102238.91;4426683;32;20635;-69
2021/12/20 02:39:26;;;;;;;24.50;12.55;;;;;;;16.55;44.85;102247.69;4426596;32;20100;-69
2021/12/20 02:41:52;;;;;;;25.48;12.02;;;;;;;16.31;44.97;102254.75;4430397;32;20081;-69
2021/12/20 02:44:18;;;;;;;26.58;13.55;;;;;;;16.31;44.99;102242.56;4430250;32;20111;-69
2021/12/20 02:49:25;;;;;;;26.80;12.52;;;;;;;16.40;44.77;102246.41;3982311;32;15024929;-69
2021/12/20 02:51:53;;;;;;;27.90;12.88;;;;;;;16.27;44.96;102242.66;4435443;32;20211;-69
2021/12/20 02:54:21;;;;;;;30.37;12.25;;;;;;;16.17;45.32;102243.69;4433107;32;20065;-69
2021/12/20 02:56:49;;;;;;;24.50;12.15;;;;;;;16.24;45.44;102239.91;4433911;32;20076;-69
2021/12/20 02:59:17;;;;;;;24.08;13.45;;;;;;;16.25;45.33;102244.34;4431386;32;20029;-69
2021/12/20 03:01:46;;;;;;;26.75;12.85;;;;;;;16.21;45.55;102232.25;4432662;32;20069;-70
2021/12/20 03:04:13;;;;;;;23.50;12.37;;;;;;;16.17;45.35;102237.25;4434871;32;20515;-70
2021/12/20 03:06:42;;;;;;;26.27;12.73;;;;;;;15.92;45.79;102224.41;4431402;32;20037;-70
2021/12/20 03:09:13;;;;;;;25.17;12.18;;;;;;;16.15;46.00;102232.00;4434175;32;20077;-70
2021/12/20 03:11:39;;;;;;;22.92;11.77;;;;;;;16.17;45.69;102225.88;4433022;32;20186;-70
2021/12/20 03:14:40;;;;;;;28.25;12.02;;;;;;;16.04;45.79;102228.59;4431840;32;20105;-70
2021/12/20 03:16:52;;;;;;;28.85;12.95;;;;;;;15.93;45.81;102217.47;4433865;32;20065;-70
2021/12/20 03:19:20;;;;;;;29.05;12.43;;;;;;;16.01;45.97;102228.69;4434195;32;20042;-70
2021/12/20 03:21:46;;;;;;;29.85;12.63;;;;;;;16.09;45.60;102216.72;4432130;32;20033;-70
2021/12/20 03:24:19;;;;;;;26.15;12.60;;;;;;;16.06;45.38;102217.59;4436203;32;20077;-70
2021/12/20 03:26:48;;;;;;;25.52;12.18;;;;;;;16.04;45.71;102205.88;4432856;32;20076;-70
2021/12/20 03:29:14;;;;;;;29.67;13.95;;;;;;;16.12;45.66;102215.03;4433910;32;20521;-70
2021/12/20 03:31:40;;;;;;;27.77;13.20;;;;;;;16.09;45.37;102211.03;4428119;32;20530;-70
2021/12/20 03:34:06;;;;;;;28.73;14.23;;;;;;;16.14;45.47;102215.41;4433361;32;20034;-70
2021/12/20 03:36:34;;;;;;;25.75;12.13;;;;;;;16.07;45.67;102213.50;4428665;32;20561;-70
2021/12/20 03:39:01;;;;;;;24.27;12.43;;;;;;;16.24;45.82;102206.63;4433542;32;20042;-70
2021/12/20 03:41:26;;;;;;;26.30;12.30;;;;;;;16.06;45.62;102209.06;4430131;32;20096;-70
2021/12/20 03:43:52;;;;;;;23.62;12.02;;;;;;;16.06;45.98;102203.41;4433721;32;20026;-70
2021/12/20 03:46:18;;;;;;;31.42;12.55;;;;;;;15.90;46.08;102201.31;4432173;32;20073;-70
2021/12/20 03:48:43;;;;;;;29.60;13.45;;;;;;;15.92;45.98;102201.69;4434319;32;20141;-70
2021/12/20 03:51:09;;;;;;;28.75;13.32;;;;;;;15.81;46.20;102203.94;4430159;32;20029;-69
2021/12/20 03:53:35;;;;;;;26.87;12.73;;;;;;;15.98;45.91;102204.00;4429162;32;20073;-70
2021/12/20 03:56:04;;;;;;;32.20;13.15;;;;;;;16.03;46.11;102201.44;4428490;32;20077;-70
2021/12/20 03:58:30;;;;;;;22.23;11.35;;;;;;;16.19;45.75;102189.28;4431481;32;20095;-69
2021/12/20 04:00:59;;;;;;;26.83;12.32;;;;;;;16.10;46.09;102189.91;4418759;32;20343;-70
2021/12/20 04:03:28;;;;;;;24.98;12.65;;;;;;;16.05;46.19;102189.63;4418699;32;20074;-70
2021/12/20 04:05:54;;;;;;;23.75;11.60;;;;;;;16.16;46.06;102195.84;4421932;32;20034;-70
2021/12/20 04:08:20;;;;;;;30.50;12.55;;;;;;;16.12;45.72;102190.28;4420736;32;20113;-70
2021/12/20 04:10:46;;;;;;;25.77;12.00;;;;;;;16.08;45.78;102195.25;4415808;32;20100;-69
2021/12/20 04:13:11;;;;;;;25.55;12.00;;;;;;;15.95;46.39;102191.47;4419735;32;20037;-69
2021/12/20 04:15:38;;;;;;;26.92;13.00;;;;;;;16.04;46.30;102193.72;4423085;32;20107;-69
2021/12/20 04:18:06;;;;;;;28.35;13.48;;;;;;;16.07;46.05;102185.09;4422888;32;20109;-69
2021/12/20 04:20:35;;;;;;;28.40;12.00;;;;;;;15.82;46.73;102196.25;4417572;32;20037;-69
2021/12/20 04:23:00;;;;;;;29.92;12.65;;;;;;;15.89;46.87;102194.03;4421736;32;20339;-69
2021/12/20 04:25:27;;;;;;;28.23;12.35;;;;;;;16.00;46.65;102193.81;4422608;32;20085;-69
2021/12/20 04:28:00;;;;;;;26.45;11.07;;;;;;;15.99;46.78;102192.22;4420969;32;20060;-70
2021/12/20 04:30:28;;;;;;;25.30;12.02;;;;;;;15.98;46.65;102185.72;4418508;32;20101;-70
2021/12/20 04:32:54;;;;;;;25.58;12.50;;;;;;;16.02;46.59;102190.53;4423275;32;20038;-70
2021/12/20 04:35:20;;;;;;;23.85;11.35;;;;;;;15.94;46.93;102193.53;4420239;32;20083;-70
2021/12/20 04:37:48;;;;;;;27.60;11.73;;;;;;;15.95;46.96;102189.44;4420379;32;20034;-70
2021/12/20 04:40:19;;;;;;;27.55;12.13;;;;;;;16.01;46.83;102184.03;4418844;32;20069;-70
2021/12/20 04:42:46;;;;;;;27.00;10.98;;;;;;;16.16;46.61;102187.31;4422770;32;20068;-70
2021/12/20 04:45:11;;;;;;;30.77;12.13;;;;;;;16.11;46.57;102183.00;4424044;32;20069;-70
2021/12/20 04:47:37;;;;;;;25.83;11.88;;;;;;;16.08;46.68;102181.03;4422997;32;20501;-70
2021/12/20 04:50:04;;;;;;;32.47;11.95;;;;;;;16.15;46.54;102180.06;4422086;32;20164;-70
2021/12/20 04:52:30;;;;;;;30.05;11.73;;;;;;;16.26;46.65;102186.28;4419794;32;20152;-70
2021/12/20 04:54:56;;;;;;;33.15;11.85;;;;;;;15.96;47.02;102187.41;4420304;32;20513;-70
2021/12/20 04:57:23;;;;;;;23.85;10.90;;;;;;;15.95;47.11;102182.94;4419148;32;20388;-69
2021/12/20 04:59:49;;;;;;;26.83;12.48;;;;;;;16.20;46.94;102188.84;4419608;32;20069;-69
2021/12/20 05:02:15;;;;;;;29.58;12.13;;;;;;;16.01;47.12;102192.56;4420754;32;20026;-69
2021/12/20 05:04:42;;;;;;;31.52;13.35;;;;;;;16.16;47.05;102178.81;4421752;32;20083;-69
2021/12/20 05:07:07;;;;;;;31.20;13.20;;;;;;;15.98;47.20;102178.47;4424365;32;20078;-69
2021/12/20 05:09:38;;;;;;;29.00;13.35;;;;;;;16.02;46.96;102176.31;4421641;32;20099;-69
2021/12/20 05:12:11;;;;;;;28.50;13.68;;;;;;;15.92;47.40;102186.69;4417786;32;20038;-69
2021/12/20 05:14:41;;;;;;;29.42;13.88;;;;;;;16.09;47.39;102181.81;4418993;32;20030;-70
2021/12/20 05:17:08;;;;;;;38.30;14.15;;;;;;;16.20;47.41;102179.53;4420235;32;20566;-69
2021/12/20 05:19:34;;;;;;;30.33;13.98;;;;;;;16.20;47.52;102182.37;4418062;32;20042;-69
2021/12/20 05:21:59;;;;;;;35.35;13.43;;;;;;;16.12;47.69;102187.44;4421717;32;20089;-69
2021/12/20 05:24:25;;;;;;;30.50;14.10;;;;;;;16.12;47.46;102184.59;4422845;32;20420;-69
2021/12/20 05:26:51;;;;;;;31.50;14.57;;;;;;;16.06;47.59;102177.84;4420067;32;20053;-69
2021/12/20 05:29:18;;;;;;;30.55;13.62;;;;;;;16.07;47.12;102190.78;4420991;32;20136;-69
2021/12/20 05:31:44;;;;;;;33.90;14.85;;;;;;;16.14;47.22;102187.78;4421353;32;20076;-69
2021/12/20 05:34:09;;;;;;;32.40;15.85;;;;;;;16.12;47.51;102198.78;4421837;32;20034;-69
2021/12/20 05:36:35;;;;;;;34.58;15.25;;;;;;;16.19;47.55;102184.41;4420814;32;20070;-69
2021/12/20 05:39:02;;;;;;;36.30;16.95;;;;;;;16.09;47.33;102179.00;4419943;32;20518;-69
2021/12/20 05:41:28;;;;;;;34.05;14.82;;;;;;;16.22;47.29;102175.00;4421586;32;20202;-69
2021/12/20 05:43:54;;;;;;;32.33;15.27;;;;;;;16.17;47.43;102189.72;4420070;32;20077;-69
2021/12/20 05:46:19;;;;;;;34.15;14.87;;;;;;;16.18;47.49;102190.53;4419432;32;20406;-69
2021/12/20 05:48:45;;;;;;;39.58;15.45;;;;;;;16.16;47.42;102173.94;4418099;32;20067;-69
2021/12/20 05:51:11;;;;;;;37.17;16.55;;;;;;;16.20;47.13;102177.47;4421840;32;20103;-69
2021/12/20 05:53:37;;;;;;;34.00;16.45;;;;;;;16.23;47.70;102175.81;4421200;32;20591;-69
2021/12/20 05:56:02;;;;;;;38.88;16.58;;;;;;;16.10;47.62;102174.94;4419803;32;20542;-69
2021/12/20 05:58:28;;;;;;;38.90;17.60;;;;;;;15.90;47.62;102169.31;4419622;32;20048;-69
2021/12/20 06:00:54;;;;;;;35.63;17.25;;;;;;;15.96;47.77;102173.22;4419861;32;20096;-69
2021/12/20 06:03:19;;;;;;;37.08;18.30;;;;;;;16.02;47.50;102165.78;4419594;32;20042;-69
2021/12/20 06:05:45;;;;;;;38.17;17.15;;;;;;;16.05;47.54;102164.88;4419130;32;20097;-69
2021/12/20 06:08:11;;;;;;;41.72;16.98;;;;;;;16.02;47.79;102167.81;4417521;32;20029;-69
2021/12/20 06:10:37;;;;;;;35.53;15.70;;;;;;;16.10;47.55;102172.87;4416014;32;20073;-68
2021/12/20 06:13:03;;;;;;;38.45;17.42;;;;;;;16.24;47.63;102171.72;4417195;32;20435;-68
2021/12/20 06:15:29;;;;;;;41.22;16.67;;;;;;;16.22;47.41;102160.81;4420847;32;20467;-68
2021/12/20 06:17:55;;;;;;;38.80;16.48;;;;;;;16.12;47.39;102153.34;4419821;32;20065;-68
2021/12/20 06:20:21;;;;;;;33.13;14.93;;;;;;;16.17;47.38;102160.53;4423137;32;20116;-68
2021/12/20 06:22:48;;;;;;;38.53;15.70;;;;;;;16.15;47.50;102152.47;4419985;32;20174;-68
2021/12/20 06:25:14;;;;;;;30.08;13.75;;;;;;;16.05;47.73;102144.19;4418795;32;20078;-68
2021/12/20 06:27:41;;;;;;;34.70;15.63;;;;;;;16.12;47.34;102144.84;4419497;32;20087;-68
2021/12/20 06:30:11;;;;;;;37.05;15.40;;;;;;;16.35;47.31;102156.00;4417934;32;20041;-68
2021/12/20 06:32:39;;;;;;;34.97;14.55;;;;;;;16.37;47.33;102152.72;4419972;32;20029;-68
2021/12/20 06:35:05;;;;;;;35.90;14.18;;;;;;;16.34;47.07;102157.25;4415501;32;20060;-68
2021/12/20 06:37:32;;;;;;;30.12;13.65;;;;;;;16.36;47.08;102148.28;4420324;32;20053;-68
2021/12/20 06:39:59;;;;;;;32.92;14.40;;;;;;;16.19;47.24;102158.03;4419077;32;20100;-68
2021/12/20 06:42:25;;;;;;;28.50;13.15;;;;;;;16.21;47.09;102164.91;4422818;32;20048;-68
2021/12/20 06:44:50;;;;;;;29.73;14.05;;;;;;;15.98;47.70;102167.88;4421466;32;20030;-68
2021/12/20 06:47:18;;;;;;;32.40;14.48;;;;;;;15.78;47.97;102172.81;4415950;32;20026;-68
2021/12/20 06:49:44;;;;;;;30.85;13.95;;;;;;;15.96;47.80;102164.69;4420148;32;20100;-68
2021/12/20 06:52:10;;;;;;;32.25;14.85;;;;;;;15.94;47.61;102162.31;4419957;32;20320;-68
2021/12/20 06:54:36;;;;;;;35.03;13.77;;;;;;;15.84;47.88;102171.84;4421494;32;20052;-68
2021/12/20 06:57:02;;;;;;;31.17;14.77;;;;;;;16.03;47.76;102170.19;4419942;32;20110;-68
2021/12/20 06:59:29;;;;;;;38.30;16.05;;;;;;;16.01;47.54;102167.00;4418617;32;20100;-68
2021/12/20 07:01:54;;;;;;;33.40;15.10;;;;;;;15.78;48.23;102173.59;4422482;32;20033;-68
2021/12/20 07:04:20;;;;;;;41.58;16.87;;;;;;;15.85;47.76;102175.50;4419843;32;20420;-68
2021/12/20 07:06:47;;;;;;;35.80;16.70;;;;;;;15.96;48.07;102176.06;4418405;32;20550;-68
2021/12/20 07:09:13;;;;;;;38.80;16.33;;;;;;;16.10;47.84;102172.09;4421246;32;20450;-68
2021/12/20 07:11:40;;;;;;;38.25;17.33;;;;;;;16.07;48.04;102173.75;4417097;32;20078;-68
2021/12/20 07:14:08;;;;;;;35.45;16.12;;;;;;;16.07;48.02;102165.22;4418563;32;20033;-68
2021/12/20 07:16:34;;;;;;;33.83;15.20;;;;;;;16.07;47.82;102170.13;4420262;32;20135;-68
2021/12/20 07:19:02;;;;;;;32.97;14.93;;;;;;;15.87;48.05;102170.19;4416230;32;20142;-68
2021/12/20 07:21:28;;;;;;;34.20;14.87;;;;;;;16.12;48.05;102166.75;4418749;32;21292;-68
2021/12/20 07:23:54;;;;;;;42.22;17.10;;;;;;;16.12;47.83;102167.56;4419673;32;20069;-68
2021/12/20 07:26:20;;;;;;;33.88;15.48;;;;;;;16.04;47.87;102168.16;4420851;32;20096;-68
2021/12/20 07:28:46;;;;;;;39.17;14.57;;;;;;;16.05;47.78;102172.59;4419685;32;20095;-68
2021/12/20 07:31:13;;;;;;;33.85;14.98;;;;;;;15.85;48.17;102176.31;4421389;32;20427;-68
2021/12/20 07:33:40;;;;;;;36.35;14.10;;;;;;;15.88;48.14;102172.59;4416750;32;20030;-68
2021/12/20 07:36:06;;;;;;;34.42;14.00;;;;;;;15.89;47.98;102173.34;4421025;32;20021;-68
2021/12/20 07:38:32;;;;;;;29.87;12.40;;;;;;;15.76;47.83;102172.44;4421683;32;20118;-68
2021/12/20 07:40:58;;;;;;;26.40;12.40;;;;;;;15.82;47.67;102173.53;4417849;32;20093;-69
2021/12/20 07:43:24;;;;;;;56.95;15.57;;;;;;;15.86;47.83;102171.41;4422977;32;20602;-68
2021/12/20 07:45:50;;;;;;;34.47;12.50;;;;;;;15.99;48.11;102172.34;4420664;32;20136;-69
2021/12/20 07:48:18;;;;;;;27.85;12.90;;;;;;;15.93;47.92;102174.09;4421370;32;20078;-69
2021/12/20 07:50:44;;;;;;;30.55;13.55;;;;;;;15.93;47.93;102166.34;4421573;32;20475;-69
2021/12/20 07:53:11;;;;;;;40.63;12.85;;;;;;;16.05;47.54;102169.75;4424828;32;20053;-69
2021/12/20 07:55:36;;;;;;;29.40;12.57;;;;;;;15.81;47.75;102169.09;4420908;32;20154;-69
2021/12/20 07:58:02;;;;;;;27.50;11.07;;;;;;;15.88;47.55;102168.94;4420965;32;20463;-69
2021/12/20 08:00:28;;;;;;;29.25;10.90;;;;;;;15.78;47.76;102169.97;4421726;32;20081;-69
2021/12/20 08:02:56;;;;;;;31.25;11.95;;;;;;;15.94;47.60;102173.66;4418092;32;20500;-69
2021/12/20 08:05:24;;;;;;;26.42;12.23;;;;;;;15.92;47.70;102173.28;4419339;32;20052;-69
2021/12/20 08:07:50;;;;;;;33.95;12.35;;;;;;;16.03;47.68;102164.53;4421030;32;20038;-69
2021/12/20 08:10:19;;;;;;;35.40;13.25;;;;;;;15.87;47.41;102181.53;4425336;32;20041;-69
2021/12/20 08:12:46;;;;;;;31.12;11.77;;;;;;;16.14;47.18;102176.41;4419746;32;20318;-69
2021/12/20 08:15:12;;;;;;;29.27;11.50;;;;;;;15.85;47.83;102179.13;4420227;32;20384;-69
2021/12/20 08:17:38;;;;;;;22.73;9.95;;;;;;;15.88;47.50;102181.09;4421489;32;20073;-69
2021/12/20 08:20:06;;;;;;;24.58;10.43;;;;;;;16.02;47.26;102186.44;4420200;32;20114;-68
2021/12/20 08:22:32;;;;;;;21.87;9.90;;;;;;;15.98;47.14;102184.91;4421365;32;20390;-68
2021/12/20 08:24:57;;;;;;;21.87;8.30;;;;;;;15.70;47.59;102183.53;4418945;32;20165;-69
2021/12/20 08:27:23;;;;;;;21.87;8.63;;;;;;;15.59;47.37;102185.00;4419918;32;20098;-69
2021/12/20 08:29:49;;;;;;;24.33;8.95;;;;;;;15.68;47.29;102177.47;4423080;32;20111;-68
2021/12/20 08:32:15;;;;;;;21.45;8.32;;;;;;;15.68;47.44;102188.84;4419652;32;20475;-68
2021/12/20 08:34:41;;;;;;;16.48;7.15;;;;;;;15.80;47.12;102182.50;4421456;32;20065;-68
2021/12/20 08:37:07;;;;;;;15.85;6.85;;;;;;;15.86;47.15;102185.59;4424134;32;20113;-68
2021/12/20 08:39:33;;;;;;;16.20;6.82;;;;;;;15.87;47.17;102188.00;4420470;32;20113;-68
2021/12/20 08:42:02;;;;;;;16.77;6.07;;;;;;;15.88;47.31;102192.47;4421937;32;20090;-68
2021/12/20 08:44:30;;;;;;;16.15;6.35;;;;;;;15.91;47.20;102185.91;4419217;32;20100;-68
2021/12/20 08:46:56;;;;;;;12.45;5.05;;;;;;;16.08;46.89;102175.38;4420763;32;20076;-68
2021/12/20 08:49:22;;;;;;;18.17;6.05;;;;;;;15.85;46.86;102181.16;4418255;32;20124;-68
2021/12/20 08:51:49;;;;;;;15.13;6.15;;;;;;;15.93;46.66;102189.06;4421313;32;20085;-68
2021/12/20 08:54:15;;;;;;;17.67;5.85;;;;;;;16.05;46.33;102181.12;4422507;32;20057;-68
2021/12/20 08:56:44;;;;;;;11.98;5.05;;;;;;;15.94;46.77;102185.00;4420581;32;20040;-68
2021/12/20 08:59:09;;;;;;;13.45;5.18;;;;;;;16.05;46.63;102169.75;4420659;32;20495;-68
2021/12/20 09:01:36;;;;;;;11.20;4.87;;;;;;;16.05;46.57;102175.44;4420021;32;20423;-68
2021/12/20 09:04:05;;;;;;;11.93;4.68;;;;;;;16.05;46.83;102181.12;4420978;32;20034;-68
2021/12/20 09:06:32;;;;;;;17.75;5.47;;;;;;;16.33;46.26;102180.44;4421917;32;20483;-68
2021/12/20 09:08:58;;;;;;;12.85;4.62;;;;;;;16.09;46.47;102176.16;4419489;32;20092;-68
2021/12/20 09:11:26;;;;;;;12.48;4.68;;;;;;;16.19;46.31;102183.59;4418334;32;20084;-68
2021/12/20 09:13:52;;;;;;;15.15;5.12;;;;;;;16.33;46.15;102174.75;4422064;32;20056;-69
2021/12/20 09:16:18;;;;;;;14.13;5.35;;;;;;;16.33;46.39;102172.72;4418668;32;20066;-68
2021/12/20 09:18:44;;;;;;;19.92;5.55;;;;;;;16.15;46.26;102172.34;4420838;32;20488;-68
2021/12/20 09:21:11;;;;;;;13.18;4.65;;;;;;;16.26;46.10;102175.72;4420232;32;20645;-68
2021/12/20 09:23:38;;;;;;;14.23;4.32;;;;;;;16.29;45.78;102183.34;4421503;32;20065;-68
2021/12/20 09:26:04;;;;;;;9.65;4.10;;;;;;;16.59;45.64;102171.66;4422897;32;20081;-68
2021/12/20 09:28:30;;;;;;;14.52;5.00;;;;;;;16.36;45.82;102174.66;4417611;32;20037;-68
2021/12/20 09:30:56;;;;;;;22.55;4.87;;;;;;;16.40;45.59;102175.38;4417771;32;20108;-68
2021/12/20 09:33:21;;;;;;;10.40;3.97;;;;;;;16.44;45.75;102178.16;4417765;32;20457;-69
2021/12/20 09:35:50;;;;;;;11.77;4.68;;;;;;;16.47;45.60;102177.28;4418205;32;20430;-68
2021/12/20 09:38:18;;;;;;;30.25;11.32;;;;;;;16.42;45.39;102184.25;4418902;32;20022;-69
2021/12/20 09:43:48;;;;;;;23.20;6.32;;;;;;;17.21;44.09;102187.44;3979330;32;15138344;-69
2021/12/20 09:46:16;;;;;;;22.67;7.55;;;;;;;17.21;44.09;102187.44;4431754;32;20038;-69
2021/12/20 09:48:44;;;;;;;36.50;10.60;;;;;;;16.63;45.70;102186.56;4430511;32;20083;-69
2021/12/20 09:51:10;;;;;;;32.08;9.25;;;;;;;16.63;45.45;102197.16;4430201;32;20050;-69
2021/12/20 09:53:37;;;;;;;33.20;10.73;;;;;;;16.56;45.25;102189.59;4428451;32;20064;-69
2021/12/20 09:56:04;;;;;;;44.67;12.07;;;;;;;16.47;45.54;102186.59;4430349;32;20057;-69
2021/12/20 09:58:35;;;;;;;40.30;10.65;;;;;;;16.56;45.28;102189.59;4432873;32;20647;-69
2021/12/20 10:01:03;;;;;;;32.97;10.13;;;;;;;16.83;44.91;102181.56;4431471;32;20057;-69
2021/12/20 10:03:29;;;;;;;35.55;9.75;;;;;;;16.75;45.12;102185.84;4425818;32;20380;-69
2021/12/20 10:05:56;;;;;;;34.22;10.10;;;;;;;16.54;44.92;102180.72;4431572;32;20454;-69
2021/12/20 10:08:32;;;;;;;38.22;10.43;;;;;;;16.48;45.11;102182.50;4435205;32;20102;-69
2021/12/20 10:11:02;;;;;;;27.35;8.75;;;;;;;16.52;45.28;102180.38;4431725;32;20455;-69
2021/12/20 10:13:33;;;;;;;35.45;8.63;;;;;;;16.66;44.63;102180.00;4430120;32;20033;-70
2021/12/20 10:16:02;;;;;;;29.42;8.25;;;;;;;16.83;44.47;102186.44;4430020;32;20099;-70
2021/12/20 10:18:31;;;;;;;29.45;8.35;;;;;;;16.92;44.64;102183.78;4428887;32;20076;-70
2021/12/20 10:20:59;;;;;;;28.23;7.43;;;;;;;16.85;44.36;102193.31;4432725;32;20138;-70
2021/12/20 10:26:12;;;;;;;22.98;7.03;;;;;;;17.47;42.93;102204.19;3978982;32;15032723;-69
2021/12/20 10:28:39;;;;;;;24.77;7.55;;;;;;;17.47;42.93;102204.19;4431944;32;20037;-69
2021/12/20 10:36:32;;;;;;;30.30;8.63;;;;;;;17.31;43.11;102203.41;3981839;32;15024775;-69
2021/12/20 10:38:59;;;;;;;33.35;9.68;;;;;;;17.31;43.11;102203.41;4416251;32;20551;-70
2021/12/20 10:41:34;;;;;;;24.67;9.13;;;;;;;17.03;43.66;102199.28;4429873;32;20198;-70
2021/12/20 10:44:03;;;;;;;23.77;8.57;;;;;;;17.13;42.69;102192.53;4432885;32;20062;-70
2021/12/20 10:46:32;;;;;;;32.22;8.40;;;;;;;17.13;43.37;102192.53;4433390;32;20038;-70
2021/12/20 10:54:14;;;;;;;33.13;9.05;;;;;;;17.54;41.55;102184.03;3979789;32;15026260;-69
2021/12/20 10:56:50;;;;;;;25.08;8.02;;;;;;;17.54;41.55;102184.03;4431591;32;20109;-69
2021/12/20 10:59:21;;;;;;;27.15;8.73;;;;;;;17.20;41.84;102186.63;4427551;32;20034;-69
2021/12/20 11:04:34;;;;;;;31.35;9.68;;;;;;;17.72;41.02;102177.78;3980143;32;15025558;-70
2021/12/20 11:09:55;;;;;;;34.85;9.18;;;;;;;17.32;41.00;102179.37;3995626;31;15014621;-69
2021/12/20 11:12:25;;;;;;;37.20;10.30;;;;;;;17.31;41.17;102181.41;4444943;32;20037;-69
2021/12/20 11:14:55;;;;;;;26.48;9.63;;;;;;;17.40;41.66;102181.56;4449098;32;20107;-69
2021/12/20 11:17:22;;;;;;;29.70;8.70;;;;;;;17.44;41.38;102176.63;4451870;32;20080;-69
2021/12/20 11:19:52;;;;;;;28.70;9.20;;;;;;;17.51;41.56;102178.44;4450840;32;20926;-69
2021/12/20 11:22:22;;;;;;;29.10;10.13;;;;;;;17.52;41.22;102180.84;4451216;32;20145;-69
2021/12/20 11:27:32;;;;;;;28.98;10.07;;;;;;;17.46;40.43;102179.78;3978674;32;15021582;-69
2021/12/20 11:30:00;;;;;;;21.23;9.52;;;;;;;17.37;41.15;102179.63;4427781;32;20074;-69
2021/12/20 11:32:27;;;;;;;18.23;8.65;;;;;;;17.32;40.98;102174.50;4428504;32;20478;-69
2021/12/20 11:34:54;;;;;;;26.08;8.68;;;;;;;17.43;41.12;102172.16;4433897;32;20453;-69
2021/12/20 11:37:23;;;;;;;27.48;8.80;;;;;;;17.33;40.68;102164.69;4434717;32;20189;-69
2021/12/20 11:39:50;;;;;;;23.60;8.05;;;;;;;17.46;40.40;102162.72;4428208;32;20524;-69
2021/12/20 11:42:16;;;;;;;27.90;9.40;;;;;;;17.36;40.21;102158.09;4428959;32;20538;-69
2021/12/20 11:44:45;;;;;;;28.08;8.73;;;;;;;17.34;40.20;102166.28;4429451;32;20073;-68
2021/12/20 11:50:12;;;;;;;28.20;8.90;;;;;;;17.70;39.52;102169.72;3954616;32;15740652;-69